createdAt,value
2022-07-30T00:02:42.087Z,19.57
2022-07-30T00:06:04.030Z,19.50
2022-07-30T00:09:25.897Z,19.45
2022-07-30T00:12:49.046Z,19.41
2022-07-30T00:16:11.757Z,19.36
2022-07-30T00:19:34.141Z,19.32
2022-07-30T00:22:57.034Z,19.27
2022-07-30T00:26:18.721Z,19.21
2022-07-30T00:29:45.007Z,19.18
2022-07-30T00:33:08.075Z,19.14
2022-07-30T00:36:29.783Z,19.11
2022-07-30T00:39:51.656Z,19.08
2022-07-30T00:43:16.667Z,19.03
2022-07-30T00:46:40.208Z,18.98
2022-07-30T00:50:04.532Z,18.95
2022-07-30T00:53:26.305Z,18.91
2022-07-30T00:56:49.068Z,18.87
2022-07-30T01:00:14.451Z,18.82
2022-07-30T01:03:38.863Z,18.78
2022-07-30T01:07:00.962Z,18.74
2022-07-30T01:10:23.045Z,18.69
2022-07-30T01:13:45.650Z,18.64
2022-07-30T01:17:07.909Z,18.61
2022-07-30T01:20:34.475Z,18.58
2022-07-30T01:24:01.268Z,18.54
2022-07-30T01:27:26.177Z,18.51
2022-07-30T01:30:50.155Z,18.50
2022-07-30T01:34:14.942Z,18.46
2022-07-30T01:37:38.051Z,18.43
2022-07-30T01:41:01.150Z,18.39
2022-07-30T01:44:26.987Z,18.38
2022-07-30T01:47:50.393Z,18.36
2022-07-30T01:51:14.387Z,18.36
2022-07-30T01:54:41.387Z,18.35
2022-07-30T01:58:04.637Z,18.35
2022-07-30T02:01:29.496Z,18.35
2022-07-30T02:04:53.588Z,18.33
2022-07-30T02:08:19.842Z,18.31
2022-07-30T02:12:05.678Z,18.29
2022-07-30T02:15:32.985Z,18.30
2022-07-30T02:19:04.342Z,18.27
2022-07-30T02:22:34.561Z,18.27
2022-07-30T02:26:00.443Z,18.24
2022-07-30T02:29:24.877Z,18.22
2022-07-30T02:32:49.819Z,18.19
2022-07-30T02:36:14.676Z,18.17
2022-07-30T02:39:39.759Z,18.12
2022-07-30T02:43:02.664Z,18.08
2022-07-30T02:46:27.306Z,18.05
2022-07-30T02:50:10.684Z,18.01
2022-07-30T02:53:35.676Z,17.97
2022-07-30T02:56:58.083Z,17.94
2022-07-30T03:00:20.304Z,17.91
2022-07-30T03:03:43.872Z,17.87
2022-07-30T03:07:08.601Z,17.85
2022-07-30T03:10:33.685Z,17.86
2022-07-30T03:13:55.277Z,17.87
2022-07-30T03:17:18.332Z,17.88
2022-07-30T03:20:41.278Z,17.87
2022-07-30T03:24:04.320Z,17.86
2022-07-30T03:27:29.428Z,17.85
2022-07-30T03:30:51.840Z,17.84
2022-07-30T03:34:14.541Z,17.84
2022-07-30T03:37:38.174Z,17.86
2022-07-30T03:41:01.439Z,17.84
2022-07-30T03:44:24.808Z,17.86
2022-07-30T03:47:47.801Z,17.86
2022-07-30T03:51:11.032Z,17.89
2022-07-30T03:54:36.301Z,17.89
2022-07-30T03:58:27.397Z,17.93
2022-07-30T04:01:55.656Z,17.96
2022-07-30T04:05:45.912Z,18.01
2022-07-30T04:09:09.217Z,18.04
2022-07-30T04:12:31.335Z,18.10
2022-07-30T04:16:05.046Z,18.12
2022-07-30T04:19:48.148Z,18.13
2022-07-30T04:23:11.735Z,18.15
2022-07-30T04:26:36.106Z,18.17
2022-07-30T04:29:59.864Z,18.20
2022-07-30T04:33:21.852Z,18.23
2022-07-30T04:37:14.398Z,18.24
2022-07-30T04:40:36.122Z,18.28
2022-07-30T04:43:58.105Z,18.30
2022-07-30T04:47:21.429Z,18.34
2022-07-30T04:51:21.096Z,18.39
2022-07-30T04:54:50.157Z,18.43
2022-07-30T04:58:14.631Z,18.47
2022-07-30T05:01:40.640Z,18.52
2022-07-30T05:05:04.797Z,18.57
2022-07-30T05:08:28.145Z,18.59
2022-07-30T05:11:56.247Z,18.64
2022-07-30T05:15:18.604Z,18.68
2022-07-30T05:18:40.473Z,18.72
2022-07-30T05:22:06.583Z,18.76
2022-07-30T05:25:30.090Z,18.81
2022-07-30T05:29:04.064Z,18.87
2022-07-30T05:32:51.549Z,18.91
2022-07-30T05:36:13.529Z,18.93
2022-07-30T05:39:35.543Z,18.95
2022-07-30T05:43:41.992Z,18.98
2022-07-30T05:47:05.029Z,19.04
2022-07-30T05:50:26.883Z,19.05
2022-07-30T05:53:48.480Z,19.11
2022-07-30T05:57:42.034Z,19.13
2022-07-30T06:01:03.641Z,19.17
2022-07-30T06:04:28.117Z,19.19
2022-07-30T06:07:55.270Z,19.23
2022-07-30T06:11:18.417Z,19.28
2022-07-30T06:14:40.574Z,19.31
2022-07-30T06:18:05.549Z,19.35
2022-07-30T06:22:02.119Z,19.39
2022-07-30T06:25:24.456Z,19.46
2022-07-30T06:28:46.229Z,19.52
2022-07-30T06:32:12.564Z,19.57
2022-07-30T06:35:34.534Z,19.61
2022-07-30T06:38:57.545Z,19.66
2022-07-30T06:42:31.457Z,19.70
2022-07-30T06:46:16.030Z,19.76
2022-07-30T06:49:41.662Z,19.81
2022-07-30T06:53:05.395Z,19.88
2022-07-30T06:56:48.574Z,19.92
2022-07-30T07:00:11.866Z,19.97
2022-07-30T07:03:39.854Z,20.02
2022-07-30T07:07:12.665Z,20.08
2022-07-30T07:10:36.411Z,20.15
2022-07-30T07:14:25.429Z,20.22
2022-07-30T07:17:47.242Z,20.28
2022-07-30T07:21:26.319Z,20.35
2022-07-30T07:24:49.557Z,20.41
2022-07-30T07:28:18.238Z,20.47
2022-07-30T07:32:02.805Z,20.55
2022-07-30T07:35:23.655Z,20.60
2022-07-30T07:38:45.484Z,20.64
2022-07-30T07:42:08.036Z,20.69
2022-07-30T07:45:32.042Z,20.74
2022-07-30T07:49:01.285Z,20.80
2022-07-30T07:52:29.385Z,20.88
2022-07-30T07:55:51.219Z,20.94
2022-07-30T07:59:17.190Z,20.90
2022-07-30T08:02:39.733Z,20.96
2022-07-30T08:06:06.801Z,21.05
2022-07-30T08:09:51.924Z,21.14
2022-07-30T08:13:52.126Z,21.20
2022-07-30T08:17:25.069Z,21.29
2022-07-30T08:21:08.603Z,21.32
2022-07-30T08:24:30.423Z,21.34
2022-07-30T08:27:52.556Z,21.35
2022-07-30T08:31:14.846Z,21.38
2022-07-30T08:34:36.569Z,21.45
2022-07-30T08:38:00.184Z,21.52
2022-07-30T08:41:23.875Z,21.58
2022-07-30T08:44:47.035Z,21.66
2022-07-30T08:48:16.282Z,21.72
2022-07-30T08:51:40.085Z,21.81
2022-07-30T08:55:22.412Z,21.90
2022-07-30T08:58:44.548Z,21.92
2022-07-30T09:02:10.385Z,21.97
2022-07-30T09:05:48.546Z,22.02
2022-07-30T09:09:11.059Z,22.08
2022-07-30T09:12:40.390Z,22.15
2022-07-30T09:16:03.399Z,22.23
2022-07-30T09:19:27.047Z,22.27
2022-07-30T09:22:50.276Z,22.34
2022-07-30T09:26:32.979Z,22.43
2022-07-30T09:30:50.241Z,22.52
2022-07-30T09:34:32.259Z,22.59
2022-07-30T09:38:06.471Z,22.63
2022-07-30T09:41:58.375Z,22.72
2022-07-30T09:45:20.018Z,22.78
2022-07-30T09:48:44.746Z,22.90
2022-07-30T09:52:06.913Z,22.95
2022-07-30T09:55:34.541Z,23.06
2022-07-30T09:58:56.462Z,23.11
2022-07-30T10:02:19.534Z,23.18
2022-07-30T10:06:03.822Z,23.24
2022-07-30T10:09:30.675Z,23.32
2022-07-30T10:12:54.235Z,23.38
2022-07-30T10:16:16.327Z,23.45
2022-07-30T10:19:40.482Z,23.53
2022-07-30T10:23:27.070Z,23.60
2022-07-30T10:27:10.233Z,23.66
2022-07-30T10:30:46.303Z,23.75
2022-07-30T10:34:11.874Z,23.77
2022-07-30T10:37:35.869Z,23.77
2022-07-30T10:41:06.171Z,23.76
2022-07-30T10:44:59.958Z,23.78
2022-07-30T10:48:22.694Z,23.85
2022-07-30T10:51:46.782Z,23.89
2022-07-30T10:55:15.858Z,23.92
2022-07-30T10:58:58.578Z,23.98
2022-07-30T11:02:24.949Z,24.02
2022-07-30T11:05:51.445Z,24.06
2022-07-30T11:09:36.475Z,24.13
2022-07-30T11:13:03.355Z,24.19
2022-07-30T11:17:04.019Z,24.25
2022-07-30T11:20:26.339Z,24.35
2022-07-30T11:23:49.529Z,24.43
2022-07-30T11:27:41.781Z,24.52
2022-07-30T11:31:10.353Z,24.59
2022-07-30T11:34:33.645Z,24.67
2022-07-30T11:38:04.236Z,24.73
2022-07-30T11:41:26.885Z,24.79
2022-07-30T11:44:48.862Z,24.84
2022-07-30T11:48:13.017Z,24.89
2022-07-30T11:51:43.697Z,24.94
2022-07-30T11:55:06.354Z,24.99
2022-07-30T11:58:30.049Z,25.03
2022-07-30T12:01:56.021Z,25.09
2022-07-30T12:05:24.417Z,25.13
2022-07-30T12:08:49.071Z,25.18
2022-07-30T12:12:23.574Z,25.23
2022-07-30T12:15:47.511Z,25.29
2022-07-30T12:19:09.838Z,25.32
2022-07-30T12:22:34.181Z,25.36
2022-07-30T12:25:58.499Z,25.40
2022-07-30T12:29:20.757Z,25.43
2022-07-30T12:32:42.828Z,25.45
2022-07-30T12:36:05.350Z,25.47
2022-07-30T12:39:28.119Z,25.48
2022-07-30T12:42:54.832Z,25.49
2022-07-30T12:46:19.463Z,25.48
2022-07-30T12:49:48.833Z,25.49
2022-07-30T12:53:11.407Z,25.50
2022-07-30T12:56:32.874Z,25.48
2022-07-30T13:00:06.574Z,25.46
2022-07-30T13:03:39.173Z,25.46
2022-07-30T13:07:05.190Z,25.42
2022-07-30T13:10:31.133Z,25.43
2022-07-30T13:13:53.979Z,25.44
2022-07-30T13:17:17.012Z,25.44
2022-07-30T13:20:39.103Z,25.46
2022-07-30T13:24:01.553Z,25.43
2022-07-30T13:27:23.334Z,25.43
2022-07-30T13:30:45.664Z,25.46
2022-07-30T13:34:08.683Z,25.49
2022-07-30T13:37:37.474Z,25.53
2022-07-30T13:41:02.611Z,25.58
2022-07-30T13:44:24.595Z,25.58
2022-07-30T13:47:46.580Z,25.53
2022-07-30T13:51:09.837Z,25.50
2022-07-30T13:54:31.727Z,25.51
2022-07-30T13:57:53.559Z,25.55
2022-07-30T14:01:18.192Z,25.60
2022-07-30T14:04:40.428Z,25.62
2022-07-30T14:08:04.643Z,25.67
2022-07-30T14:11:26.960Z,25.72
2022-07-30T14:14:49.308Z,25.76
2022-07-30T14:18:11.205Z,25.80
2022-07-30T14:21:33.179Z,25.81
2022-07-30T14:24:56.494Z,25.83
2022-07-30T14:28:17.984Z,25.83
2022-07-30T14:31:40.615Z,25.79
2022-07-30T14:35:02.224Z,25.76
2022-07-30T14:38:25.451Z,25.73
2022-07-30T14:41:52.296Z,25.73
2022-07-30T14:45:17.693Z,25.74
2022-07-30T14:48:39.583Z,25.76
2022-07-30T14:52:01.962Z,25.80
2022-07-30T14:55:23.835Z,25.81
2022-07-30T14:58:46.982Z,25.82
2022-07-30T15:02:10.887Z,25.84
2022-07-30T15:05:32.707Z,25.85
2022-07-30T15:08:54.585Z,25.85
2022-07-30T15:12:23.886Z,25.87
2022-07-30T15:15:50.375Z,25.89
2022-07-30T15:19:13.663Z,25.93
2022-07-30T15:22:35.628Z,25.95
2022-07-30T15:25:57.233Z,25.98
2022-07-30T15:29:21.071Z,26.09
2022-07-30T15:32:44.742Z,26.25
2022-07-30T15:36:07.285Z,26.50
2022-07-30T15:39:29.626Z,26.72
2022-07-30T15:42:51.277Z,26.96
2022-07-30T15:46:13.173Z,27.14
2022-07-30T15:49:36.274Z,27.30
2022-07-30T15:52:58.497Z,27.43
2022-07-30T15:56:20.737Z,27.57
2022-07-30T15:59:42.299Z,27.79
2022-07-30T16:03:04.302Z,28.02
2022-07-30T16:06:27.673Z,28.16
2022-07-30T16:09:49.503Z,28.28
2022-07-30T16:13:11.240Z,28.49
2022-07-30T16:16:32.928Z,28.72
2022-07-30T16:19:55.017Z,28.97
2022-07-30T16:23:21.250Z,29.14
2022-07-30T16:26:43.481Z,29.29
2022-07-30T16:30:05.722Z,29.43
2022-07-30T16:33:27.664Z,29.52
2022-07-30T16:36:49.467Z,29.60
2022-07-30T16:40:13.583Z,29.60
2022-07-30T16:43:35.948Z,29.54
2022-07-30T16:46:57.714Z,29.48
2022-07-30T16:50:20.005Z,29.39
2022-07-30T16:53:41.823Z,29.29
2022-07-30T16:57:10.385Z,29.41
2022-07-30T17:00:32.387Z,29.50
2022-07-30T17:03:54.084Z,29.58
2022-07-30T17:07:16.067Z,29.58
2022-07-30T17:10:37.623Z,29.56
2022-07-30T17:14:04.167Z,29.51
2022-07-30T17:17:25.721Z,29.39
2022-07-30T17:20:47.644Z,29.32
2022-07-30T17:24:13.490Z,29.21
2022-07-30T17:27:35.671Z,29.11
2022-07-30T17:30:58.625Z,29.02
2022-07-30T17:34:21.400Z,28.92
2022-07-30T17:37:42.979Z,28.84
2022-07-30T17:41:04.829Z,28.79
2022-07-30T17:44:27.181Z,28.72
2022-07-30T17:47:49.811Z,28.63
2022-07-30T17:51:11.616Z,28.54
2022-07-30T17:54:33.539Z,28.41
2022-07-30T17:57:55.652Z,28.27
2022-07-30T18:01:17.835Z,28.06
2022-07-30T18:04:41.176Z,27.83
2022-07-30T18:08:03.023Z,27.62
2022-07-30T18:11:25.629Z,27.44
2022-07-30T18:14:47.505Z,27.25
2022-07-30T18:18:09.436Z,27.09
2022-07-30T18:21:32.342Z,26.94
2022-07-30T18:24:53.825Z,26.80
2022-07-30T18:28:15.611Z,26.63
2022-07-30T18:31:37.390Z,26.45
2022-07-30T18:34:59.283Z,26.23
2022-07-30T18:38:22.715Z,25.99
2022-07-30T18:41:45.916Z,25.76
2022-07-30T18:45:08.608Z,25.53
2022-07-30T18:48:30.407Z,25.31
2022-07-30T18:51:52.354Z,25.08
2022-07-30T18:55:17.319Z,24.86
2022-07-30T18:58:39.258Z,24.64
2022-07-30T19:02:01.445Z,24.43
2022-07-30T19:05:23.069Z,24.23
2022-07-30T19:08:44.713Z,24.01
2022-07-30T19:12:08.165Z,23.81
2022-07-30T19:15:29.891Z,23.63
2022-07-30T19:18:51.921Z,23.40
2022-07-30T19:22:13.621Z,23.22
2022-07-30T19:25:37.118Z,23.03
2022-07-30T19:29:00.080Z,22.87
2022-07-30T19:32:21.593Z,22.69
2022-07-30T19:35:43.479Z,22.54
2022-07-30T19:39:07.410Z,22.37
2022-07-30T19:42:29.300Z,22.23
2022-07-30T19:45:53.510Z,22.10
2022-07-30T19:49:19.840Z,21.96
2022-07-30T19:52:51.373Z,21.82
2022-07-30T19:56:13.242Z,21.71
2022-07-30T19:59:45.012Z,21.60
2022-07-30T20:03:12.702Z,21.51
2022-07-30T20:06:36.275Z,21.47
2022-07-30T20:10:00.396Z,21.41
2022-07-30T20:13:23.418Z,21.33
2022-07-30T20:16:45.565Z,21.24
2022-07-30T20:20:09.772Z,21.15
2022-07-30T20:23:31.638Z,21.03
2022-07-30T20:26:53.565Z,20.92
2022-07-30T20:30:15.352Z,20.80
2022-07-30T20:33:39.129Z,20.68
2022-07-30T20:37:15.083Z,20.59
2022-07-30T20:40:46.565Z,20.48
2022-07-30T20:44:11.137Z,20.37
2022-07-30T20:47:38.714Z,20.28
2022-07-30T20:51:00.424Z,20.19
2022-07-30T20:54:23.674Z,20.10
2022-07-30T20:58:01.132Z,20.00
2022-07-30T21:01:28.373Z,19.90
2022-07-30T21:04:56.659Z,19.83
2022-07-30T21:08:25.170Z,19.75
2022-07-30T21:11:50.411Z,19.69
2022-07-30T21:15:23.887Z,19.62
2022-07-30T21:18:50.475Z,19.54
2022-07-30T21:22:12.213Z,19.47
2022-07-30T21:25:41.524Z,19.39
2022-07-30T21:29:19.505Z,19.34
2022-07-30T21:32:42.222Z,19.28
2022-07-30T21:36:04.174Z,19.21
2022-07-30T21:39:29.145Z,19.14
2022-07-30T21:42:50.718Z,19.08
2022-07-30T21:46:14.500Z,19.01
2022-07-30T21:49:36.327Z,18.93
2022-07-30T21:52:58.074Z,18.87
2022-07-30T21:56:20.425Z,18.80
2022-07-30T21:59:42.119Z,18.75
2022-07-30T22:03:12.421Z,18.69
2022-07-30T22:06:47.058Z,18.62
2022-07-30T22:10:09.461Z,18.56
2022-07-30T22:13:32.555Z,18.49
2022-07-30T22:16:54.578Z,18.44
2022-07-30T22:20:17.697Z,18.37
2022-07-30T22:23:40.338Z,18.32
2022-07-30T22:27:16.742Z,18.25
2022-07-30T22:30:38.583Z,18.20
2022-07-30T22:34:00.509Z,18.12
2022-07-30T22:37:23.417Z,18.07
2022-07-30T22:40:44.898Z,18.01
2022-07-30T22:44:06.726Z,17.99
2022-07-30T22:47:51.500Z,17.97
2022-07-30T22:51:16.095Z,17.92
2022-07-30T22:54:39.735Z,17.83
2022-07-30T22:58:01.496Z,17.74
2022-07-30T23:01:23.270Z,17.65
2022-07-30T23:04:45.254Z,17.56
2022-07-30T23:08:07.364Z,17.48
2022-07-30T23:11:37.169Z,17.40
2022-07-30T23:14:59.753Z,17.32
2022-07-30T23:18:21.298Z,17.25
2022-07-30T23:21:48.654Z,17.18
2022-07-30T23:25:12.052Z,17.14
2022-07-30T23:28:35.373Z,17.11
2022-07-30T23:31:57.417Z,17.05
2022-07-30T23:35:19.141Z,17.00
2022-07-30T23:38:40.994Z,16.94
2022-07-30T23:42:02.698Z,16.88
2022-07-30T23:45:26.035Z,16.82
2022-07-30T23:48:47.861Z,16.73
2022-07-30T23:52:09.967Z,16.69
2022-07-30T23:55:33.398Z,16.63
2022-07-30T23:58:55.142Z,16.57
